Weather at Moore Dogs Heliport

Public forecast

Using degrees Fahrenheit for public forecast. Weather courtesy of forecast.io.

Closest aviation weather report (METAR) to Moore Dogs Heliport

Closest report is Plymouth Municipal Airport, 3.5 nm (6.4 km) ESE. Retrieved 2021/01/28 00:09 UTC (48 minutes ago):

KPYM 280009Z AUTO 32003KT 9SM OVC016 01/M01 A3002 RMK AO2 T00061006

Closest aviation forecast (TAF) to Moore Dogs Heliport

Closest forecast is Cape Cod Coast Guard Air Station, 20.4 nm (37.8 km) SE. Retrieved 2021-01-28 00:33 UTC (24 minutes ago):

TAF KFMH 272330Z 2800/2824 34006KT P6SM VCSH OVC011 FM280400 34004KT P6SM -SN OVC008 FM281100 34005KT 2SM -SN BR VCSH OVC008 FM281800 34012G22KT P6SM VCSH OVC011 FM282100 34011G23KT P6SM BKN025